ADDS METAR Data INFO
IDs: Format: Raw Decoded Include TAF

Data at: 0459 UTC 23 May 2017

KRYW 230455Z AUTO 34004KT 10SM SCT024 20/19 A2998 RMK AO2 T01980186
KRYW 230435Z AUTO 34003KT 10SM OVC022 20/19 A2998 RMK AO2 T02000188
KRYW 230415Z AUTO 36004KT 10SM OVC022 20/19 A2996 RMK AO2 T02000188
KRYW 230355Z AUTO 03003KT 10SM OVC022 20/19 A2995 RMK AO2 T02000188
KRYW 230335Z AUTO 03003KT 10SM OVC022 20/19 A2994 RMK AO2 T02000188
KRYW 230315Z AUTO 36003KT 10SM OVC022 20/19 A2995 RMK AO2 T02000188
KRYW 230255Z AUTO 00000KT 10SM OVC022 20/19 A2994 RMK AO2 T02000190
KRYW 230235Z AUTO 01004KT 10SM OVC022 20/19 A2993 RMK AO2 T01990187
KRYW 230215Z AUTO 03003KT 10SM OVC024 20/19 A2993 RMK AO2 T02020190
KRYW 230155Z AUTO 00000KT 10SM OVC022 21/19 A2993 RMK AO2 T02050190
KRYW 230135Z AUTO 01003KT 10SM OVC022 21/19 A2993 RMK AO2 T02070190
KRYW 230115Z AUTO 02003KT 10SM OVC020 21/19 A2993 RMK AO2 T02100190
KRYW 230055Z AUTO 00000KT 10SM BKN015 OVC020 21/19 A2993 RMK AO2 LTG DSNT N T02100190
KRYW 230035Z AUTO 00000KT 10SM OVC017 21/19 A2993 RMK AO2 T02130188
KRYW 230015Z AUTO 00000KT 10SM OVC017 22/19 A2994 RMK AO2 T02150190
KRYW 222355Z AUTO 00000KT 10SM OVC013 21/19 A2993 RMK AO2 T02120187 10235 20208
KRYW 222335Z AUTO 08004KT 10SM OVC013 21/19 A2993 RMK AO2 T02130186
KRYW 222315Z AUTO 09004KT 10SM SCT010 OVC015 22/19 A2994 RMK AO2 T02150186
KRYW 222255Z AUTO 05004KT 10SM OVC010 21/19 A2994 RMK AO2 T02110186
KRYW 222235Z AUTO 08006KT 10SM OVC010 21/19 A2995 RMK AO2 T02080185
KRYW 222215Z AUTO 07005KT 10SM OVC012 21/19 A2995 RMK AO2 LTG DSNT N T02130187
KRYW 222155Z AUTO 09004KT 10SM OVC012 22/19 A2996 RMK AO2 T02160187
KRYW 222135Z AUTO 08005KT 10SM OVC012 22/19 A2996 RMK AO2 T02160188
KRYW 222115Z AUTO 06008KT 10SM OVC012 22/19 A2996 RMK AO2 T02240188
KRYW 222055Z AUTO 07007KT 10SM OVC012 23/19 A2996 RMK AO2 T02250187
KRYW 222035Z AUTO 06008KT 10SM OVC012 23/19 A2997 RMK AO2 T02290188
KRYW 222015Z AUTO 06009G14KT 10SM OVC012 23/19 A2997 RMK AO2 T02280189
KRYW 221955Z AUTO 06011KT 10SM OVC010 23/19 A2998 RMK AO2 T02290190
KRYW 221935Z AUTO 07009G14KT 10SM OVC012 22/19 A2999 RMK AO2 T02210190
KRYW 221915Z AUTO 07008KT 10SM OVC012 22/19 A3000 RMK AO2 T02220189
KRYW 221855Z AUTO 06011KT 10SM OVC012 22/19 A3000 RMK AO2 T02210189
KRYW 221835Z AUTO 07007KT 10SM OVC012 22/19 A3001 RMK AO2 T02200188
KRYW 221815Z AUTO 06006KT 10SM OVC012 22/19 A3001 RMK AO2 T02240188
KRYW 221755Z AUTO 06007KT 10SM OVC010 22/19 A3002 RMK AO2 T02180186 10218 20146
KRYW 221735Z AUTO 10006KT 10SM OVC010 21/18 A3003 RMK AO2 LTG DSNT SE T02130184
KRYW 221715Z AUTO 06006KT 10SM OVC008 22/19 A3003 RMK AO2 T02150187
KRYW 221655Z AUTO 08008KT 10SM OVC006 21/19 A3003 RMK AO2 T02130191
KRYW 221635Z AUTO 07009KT 10SM OVC004 20/19 A3003 RMK AO2 T01960186
KRYW 221615Z AUTO 07006KT 10SM OVC004 19/18 A3004 RMK AO2 T01850180
KRYW 221555Z AUTO 07008KT 10SM OVC002 18/17 A3005 RMK AO2 T01780173
KRYW 221535Z AUTO 06007KT 5SM BR OVC002 17/17 A3004 RMK AO2 T01740169
KRYW 221515Z AUTO 05005KT 1 1/2SM -DZ OVC002 17/17 A3005 RMK AO2 T01690165
KRYW 221455Z AUTO 06006KT 1SM -DZ OVC002 17/16 A3006 RMK AO2 T01650161
KRYW 221435Z AUTO 05009KT 1 1/4SM -DZ OVC002 16/16 A3005 RMK AO2 T01620158
KRYW 221415Z AUTO 04009G14KT 1 3/4SM BR OVC002 16/16 A3005 RMK AO2 T01590155
KRYW 221355Z AUTO 05009KT 3SM BR OVC002 16/15 A3004 RMK AO2 T01560152
KRYW 221335Z AUTO 05008KT 5SM BR BKN002 OVC010 16/15 A3004 RMK AO2 T01550151
KRYW 221315Z AUTO 04009KT 5SM BR BKN002 OVC012 15/15 A3004 RMK AO2 T01530150
KRYW 221255Z AUTO 04009G15KT 5SM BR BKN002 OVC012 15/15 A3004 RMK AO2 T01500146
KRYW 221235Z AUTO 04010G16KT 4SM BR OVC002 15/15 A3004 RMK AO2 T01480145
KRYW 221215Z AUTO 04010KT 4SM -DZ OVC002 15/14 A3004 RMK AO2 T01470142
KRYW 221155Z AUTO 02011G16KT 3SM +DZ OVC002 15/14 A3004 RMK AO2 60001 70030 T01470142 10160 20147
KRYW 221135Z AUTO 03010G16KT 5SM DZ BKN004 BKN009 OVC013 15/15 A3004 RMK AO2 T01510146
KRYW 221115Z AUTO 03011G17KT 10SM OVC013 15/15 A3004 RMK AO2 T01510146
KRYW 221055Z AUTO 03010G15KT 10SM -RA SCT003 OVC015 15/15 A3004 RMK AO2 P0001 T01530148
KRYW 221035Z AUTO 02009G15KT 7SM -DZ BKN003 BKN007 OVC015 16/15 A3004 RMK AO2 P0001 T01570152
KRYW 221015Z AUTO 03013G18KT 5SM RA BKN003 OVC007 16/15 A3004 RMK AO2 P0001 T01570152
KRYW 220955Z AUTO 03010G16KT 7SM OVC003 16/15 A3005 RMK AO2 T01580153
KRYW 220935Z AUTO 03010KT 7SM BKN003 OVC019 16/16 A3005 RMK AO2 LTG DSNT SE T01600155
KRYW 220915Z AUTO 04009KT 7SM SCT003 OVC019 16/16 A3004 RMK AO2 LTG DSNT E T01600155
KRYW 220855Z AUTO 03008KT 10SM OVC019 16/15 A3006 RMK AO2 T01580153
KRYW 220835Z AUTO 04011G16KT 10SM OVC019 16/15 A3006 RMK AO2 T01560151
KRYW 220815Z AUTO 04009KT 10SM OVC023 16/15 A3007 RMK AO2 T01560151
KRYW 220755Z AUTO 06008KT 10SM OVC023 16/15 A3008 RMK AO2 T01560151
KRYW 220735Z AUTO 07006KT 10SM BKN020 OVC028 16/15 A3009 RMK AO2 T01570152
KRYW 220715Z AUTO 07005KT 10SM BKN029 BKN046 OVC100 16/15 A3011 RMK AO2 T01560151
KRYW 220655Z AUTO 05008G15KT 10SM SCT080 SCT110 16/15 A3009 RMK AO2 T01550150
KRYW 220635Z AUTO 04009G15KT 10SM CLR 15/15 A3006 RMK AO2 LTG DSNT SW T01530148
KRYW 220615Z AUTO 04011G17KT 10SM CLR 15/15 A3005 RMK AO2 T01520147
KRYW 220555Z AUTO 05010G15KT 10SM SCT070 BKN110 15/15 A3006 RMK AO2 60014 T01520147 10175 20151 402450151
KRYW 220535Z AUTO 03012G17KT 10SM BKN075 BKN080 BKN120 15/15 A3008 RMK AO2 T01510145
KRYW 220515Z AUTO 03011KT 10SM -RA SCT050 SCT070 OVC120 15/15 A3009 RMK AO2 T01510145
KRYW 220455Z AUTO 05010G16KT 10SM -RA SCT050 BKN095 OVC120 15/15 A3010 RMK AO2 P0001 T01520147
KRYW 220435Z AUTO 05010KT 10SM -RA SCT006 SCT075 BKN095 15/15 A3012 RMK AO2 P0001 T01530147
KRYW 220415Z AUTO 05009KT 10SM SCT006 SCT095 15/15 A3012 RMK AO2 P0001 T01530147
KRYW 220355Z AUTO 06005KT 10SM BKN008 BKN033 15/15 A3013 RMK AO2 T01530147
KRYW 220335Z AUTO 00000KT 10SM SCT008 BKN120 15/15 A3013 RMK AO2 T01540148
KRYW 220315Z AUTO 08008KT 10SM SCT004 SCT120 16/15 A3010 RMK AO2 T01550148
KRYW 220255Z AUTO 06006KT 10SM -RA SCT006 SCT035 BKN120 16/15 A3009 RMK AO2 60013 T01550150
KRYW 220235Z AUTO 03009G17KT 10SM -RA SCT006 SCT037 BKN120 16/15 A3006 RMK AO2 LTG DSNT NE T01560150
KRYW 220215Z AUTO 02012G20KT 10SM SCT004 SCT075 BKN095 16/15 A3006 RMK AO2 LTG DSNT NE T01580151
KRYW 220155Z AUTO 02014G20KT 10SM SCT004 SCT040 BKN055 16/15 A3007 RMK AO2 LTG DSNT N AND NE P0004 T01600153
KRYW 220135Z AUTO 02013G20KT 7SM RA SCT041 BKN075 OVC120 16/15 A3006 RMK AO2 LTG DSNT NE AND E P0004 T01600153
KRYW 220115Z AUTO 02011G18KT 10SM RA SCT022 SCT046 BKN070 16/16 A3008 RMK AO2 LTG DSNT N AND NE P0001 T01630156
KRYW 220055Z AUTO 01009G14KT 10SM -VCTSRA SCT026 BKN047 OVC090 17/16 A3010 RMK AO2 LTG DSNT ALQS P0009 T01680160
KRYW 220035Z AUTO 03005KT 10SM -RA SCT027 BKN050 OVC090 17/16 A3012 RMK AO2 LTG DSNT ALQS P0008 T01700160
KRYW 220015Z AUTO 36006KT 3SM +TSRA BKN027 OVC035 17/16 A3010 RMK AO2 LTG DSNT ALQS P0007 T01720161
KRYW 212355Z AUTO 30005KT 10SM -DZ OVC025 18/16 A3011 RMK AO2 LTG DSNT N THRU S P0004 60015 T01750163 10245 20175
KRYW 212335Z AUTO 34006KT 10SM -TSRA OVC025 18/16 A3009 RMK AO2 LTG DSNT ALQS P0004 T01760161
KRYW 212315Z AUTO 36005KT 7SM TSRA OVC025 18/16 A3008 RMK AO2 LTG DSNT ALQS P0003 T01810161
KRYW 212255Z AUTO 36005KT 2SM +TSRA OVC023 19/16 A3008 RMK AO2 LTG DSNT ALQS P0011 T01940158
KRYW 212235Z AUTO 04007KT 10SM -RA OVC023 22/14 A3007 RMK AO2 LTG DSNT E AND W T02150137
KRYW 212215Z AUTO 04007KT 10SM OVC025 22/14 A3008 RMK AO2 LTG DSNT W T02200139
KRYW 212155Z AUTO 05007KT 10SM OVC025 22/14 A3008 RMK AO2 T02200135
KRYW 212135Z AUTO 05010G14KT 10SM VCTS OVC025 22/13 A3007 RMK AO2 LTG DSNT NW T02220130
KRYW 212115Z AUTO 06009G17KT 10SM OVC023 23/13 A3007 RMK AO2 LTG DSNT E T02260130
KRYW 212055Z AUTO 06008G14KT 040V100 10SM OVC021 23/13 A3006 RMK AO2 LTG DSNT SW AND NW T02330134
KRYW 212035Z AUTO 05008G14KT 10SM OVC021 23/13 A3007 RMK AO2 LTG DSNT W T02300133
KRYW 212015Z AUTO 07008G14KT 10SM SCT023 24/14 A3008 RMK AO2 LTG DSNT W T02350139
KRYW 211955Z AUTO 05010G14KT 10SM SCT023 SCT100 SCT120 23/14 A3009 RMK AO2 T02320139
KRYW 211935Z AUTO 04012G19KT 010V070 10SM SCT100 SCT120 25/14 A3008 RMK AO2 LTG DSNT W T02450143
KRYW 211915Z AUTO 05011G19KT 020V080 10SM SCT046 SCT100 24/14 A3009 RMK AO2 LTG DSNT SW T02390137
KRYW 211855Z AUTO 05011G19KT 10SM SCT023 BKN046 24/13 A3009 RMK AO2 LTG DSNT SE T02360128
KRYW 211835Z AUTO 05015G20KT 10SM OVC023 23/12 A3010 RMK AO2 T02260121
KRYW 211815Z AUTO 05008G21KT 10SM OVC023 22/12 A3011 RMK AO2 T02190124
KRYW 211755Z AUTO 05009G20KT 030V090 10SM OVC021 22/13 A3010 RMK AO2 T02170126 10220 20200
KRYW 211735Z AUTO 06011G18KT 10SM OVC021 21/13 A3011 RMK AO2 T02130134
KRYW 211715Z AUTO 05013G20KT 10SM OVC021 21/13 A3011 RMK AO2 T02110132


Page loaded:  04:59 UTC  |   09:59 PM Pacific  |   10:59 PM Mountain  |   11:59 PM Central  |   12:59 AM Eastern

 

ADVISORIES

FORECASTS

FORECASTS

OBSERVATIONS

USER TOOLS

ABOUT US